EIME

Casement Air Base Airport

Baldonnel, Ireland
TAF EIME 190800Z 1909/1918 21010KT 9999 SCT030 BECMG 1909/1912 24010KT BECMG 1915/1918 21008KT
Issued Valid From Valid To
Oct-19 @ 08:00 UTC
(2 hours ago)
Oct-19 @ 09:00 UTC
(41 minutes ago)
Oct-19 @ 18:00 UTC
(in 8 hours)
Oct-19 @ 09:00 to Oct-19 @ 18:00
TAF EIME 190800Z 1909/1918 21010KT 9999 SCT030
Wind Visibility Clouds
210° at 10 knots 10,000+ meters
  • Scattered at 3,000' AGL
Becoming Oct-19 @ 09:00 to Oct-19 @ 15:00
BECMG 1909/1912 24010KT
Wind Visibility Clouds
240° at 10 knots 10,000+ meters
  • Scattered at 3,000' AGL
Becoming Oct-19 @ 15:00 to Oct-19 @ 18:00
BECMG 1915/1918 21008KT
Wind Visibility Clouds
210° at 8 knots 10,000+ meters
  • Scattered at 3,000' AGL
TAF EIME 190800Z 1909/1918 21010KT 9999 SCT030 BECMG 1909/1912 24010KT BECMG 1915/1918 21008KT
Issued Oct-19 @ 08:00 UTC
(2 hours ago)
Valid From Oct-19 @ 09:00 UTC
(41 minutes ago)
Valid To Oct-19 @ 18:00 UTC
(in 8 hours)
Oct-19 @ 09:00 - Oct-19 @ 18:00
Wind Visibility
210° at 10 knots 10,000+ meters
Clouds
  • Scattered at 3,000' AGL
Becoming Oct-19 @ 09:00 - Oct-19 @ 15:00
Wind Visibility
240° at 10 knots 10,000+ meters
Clouds
  • Scattered at 3,000' AGL
Becoming Oct-19 @ 15:00 - Oct-19 @ 18:00
Wind Visibility
210° at 8 knots 10,000+ meters
Clouds
  • Scattered at 3,000' AGL